Time;durP1;ratioP1;P1;durP2;ratioP2;P2;SDS_P1;SDS_P2;PMS_P1;PMS_P2;Temp;Humidity;BMP_temperature;BMP_pressure;BME280_temperature;BME280_humidity;BME280_pressure;Samples;Min_cycle;Max_cycle;Signal;HPM_P1;HPM_P2
2023/08/22 00:01:01;;;;;;;7.4;6.3;;;;;;;21.71;83.38281;942.548;;;;
2023/08/22 00:03:26;;;;;;;9.8;6.6;;;;;;;21.81;82.9082;942.603;;;;
2023/08/22 00:05:52;;;;;;;9;6.4;;;;;;;21.9;82.39941;942.5909;;;;
2023/08/22 00:08:17;;;;;;;8.8;7;;;;;;;21.92;82.32031;942.6164;;;;
2023/08/22 00:10:46;;;;;;;7.1;6.4;;;;;;;21.89;82.29199;942.5701;;;;
2023/08/22 00:13:11;;;;;;;9.8;6.9;;;;;;;21.88;82.38379;942.5064;;;;
2023/08/22 00:15:39;;;;;;;7.4;6.2;;;;;;;21.95;82.02246;942.4825;;;;
2023/08/22 00:18:04;;;;;;;8.2;7;;;;;;;21.9;81.97559;942.5278;;;;
2023/08/22 00:20:32;;;;;;;7.5;6;;;;;;;21.93;82.11133;942.5692;;;;
2023/08/22 00:22:56;;;;;;;8.5;6.5;;;;;;;21.78;82.44727;942.512;;;;
2023/08/22 00:25:23;;;;;;;7.6;6.1;;;;;;;21.77;82.3623;942.5658;;;;
2023/08/22 00:27:48;;;;;;;8.3;7;;;;;;;21.77;82.3623;942.57;;;;
2023/08/22 00:30:17;;;;;;;9.2;6.3;;;;;;;21.76;82.37207;942.52;;;;
2023/08/22 00:32:46;;;;;;;8.7;6.4;;;;;;;21.72;82.5166;942.5122;;;;
2023/08/22 00:35:11;;;;;;;9;6.6;;;;;;;21.68;82.52148;942.4744;;;;
2023/08/22 00:37:39;;;;;;;7.6;6.8;;;;;;;21.66;82.5293;942.4756;;;;
2023/08/22 00:40:05;;;;;;;7.8;6;;;;;;;21.61;82.56836;942.483;;;;
2023/08/22 00:42:29;;;;;;;7.6;6.8;;;;;;;21.68;82.20703;942.505;;;;
2023/08/22 00:44:55;;;;;;;8;6.7;;;;;;;21.57;83.15625;942.3958;;;;
2023/08/22 00:47:20;;;;;;;7.8;7;;;;;;;21.6;82.9043;942.4964;;;;
2023/08/22 00:49:47;;;;;;;8;6.7;;;;;;;21.53;83.04492;942.4787;;;;
2023/08/22 00:52:12;;;;;;;10.8;6.6;;;;;;;21.53;83.00977;942.4835;;;;
2023/08/22 00:54:39;;;;;;;9.1;6.4;;;;;;;21.54;82.96387;942.4639;;;;
2023/08/22 00:57:04;;;;;;;7.5;6.4;;;;;;;21.56;83.09668;942.3823;;;;
2023/08/22 00:59:32;;;;;;;9.4;6.8;;;;;;;21.63;82.74707;942.4084;;;;
2023/08/22 01:01:57;;;;;;;7.3;6.5;;;;;;;21.61;82.68457;942.325;;;;
2023/08/22 01:04:22;;;;;;;7.7;6;;;;;;;21.67;82.44922;942.3805;;;;
2023/08/22 01:06:47;;;;;;;9.2;6.7;;;;;;;21.64;82.09277;942.4063;;;;
2023/08/22 01:09:14;;;;;;;7.8;6.9;;;;;;;21.49;82.96582;942.3963;;;;
2023/08/22 01:11:38;;;;;;;8.9;6.9;;;;;;;21.41;83.92188;942.3883;;;;
2023/08/22 01:14:08;;;;;;;9.5;6.6;;;;;;;21.45;83.33203;942.3788;;;;
2023/08/22 01:16:34;;;;;;;7.8;6.6;;;;;;;21.45;83.39258;942.3876;;;;
2023/08/22 01:19:03;;;;;;;7.7;6.7;;;;;;;21.35;83.71094;942.3268;;;;
2023/08/22 01:21:24;;;;;;;8.2;6.5;;;;;;;21.33;83.95313;942.3467;;;;
2023/08/22 01:23:55;;;;;;;9.1;6.5;;;;;;;21.39;83.61621;942.3539;;;;
2023/08/22 01:26:20;;;;;;;8.4;6.7;;;;;;;21.38;83.09766;942.3186;;;;
2023/08/22 01:28:47;;;;;;;8.8;6.9;;;;;;;21.25;84.26758;942.3625;;;;
2023/08/22 01:31:12;;;;;;;8;6.4;;;;;;;21.07;85.12207;942.3194;;;;
2023/08/22 01:33:37;;;;;;;9.4;7.1;;;;;;;21.01;85.63574;942.3334;;;;
2023/08/22 01:36:03;;;;;;;9;6.8;;;;;;;21;85.69238;942.3377;;;;
2023/08/22 01:38:28;;;;;;;8;6.8;;;;;;;20.96;85.73242;942.3046;;;;
2023/08/22 01:43:18;;;;;;;11.2;7;;;;;;;20.94;85.74121;942.3011;;;;
2023/08/22 01:45:45;;;;;;;14.1;6.7;;;;;;;20.92;85.60742;942.3315;;;;
2023/08/22 01:48:10;;;;;;;10.4;7.2;;;;;;;20.93;85.58496;942.3499;;;;
2023/08/22 01:50:38;;;;;;;7.7;6.9;;;;;;;20.78;86.50391;942.3589;;;;
2023/08/22 01:53:03;;;;;;;9.8;7;;;;;;;20.7;87.31836;942.4003;;;;
2023/08/22 01:55:29;;;;;;;8.5;7.2;;;;;;;20.74;87.02148;942.3631;;;;
2023/08/22 01:57:54;;;;;;;7.9;7;;;;;;;20.76;86.81641;942.3448;;;;
2023/08/22 02:00:21;;;;;;;9.7;7;;;;;;;20.79;86.66992;942.3491;;;;
2023/08/22 02:02:46;;;;;;;8.5;6.7;;;;;;;20.82;86.37305;942.3356;;;;
2023/08/22 02:05:16;;;;;;;7.3;6.6;;;;;;;20.8;86.37891;942.2994;;;;
2023/08/22 02:07:46;;;;;;;8;6.6;;;;;;;20.8;86.21582;942.2766;;;;
2023/08/22 02:10:11;;;;;;;10.3;6.6;;;;;;;20.8;86.13379;942.2905;;;;
2023/08/22 02:12:38;;;;;;;7.7;6.5;;;;;;;20.77;86.22168;942.3145;;;;
2023/08/22 02:15:03;;;;;;;9.4;6.7;;;;;;;20.79;86.13184;942.315;;;;
2023/08/22 02:17:29;;;;;;;7.7;6.6;;;;;;;20.71;86.41797;942.3072;;;;
2023/08/22 02:19:54;;;;;;;12;7.2;;;;;;;20.61;86.73926;942.301;;;;
2023/08/22 02:22:19;;;;;;;9.3;6.6;;;;;;;20.61;86.95996;942.2274;;;;
2023/08/22 02:24:46;;;;;;;8.4;6.6;;;;;;;20.6;86.96973;942.2844;;;;
2023/08/22 02:27:12;;;;;;;9;7;;;;;;;20.56;87.11621;942.2236;;;;
2023/08/22 02:29:38;;;;;;;7.9;7;;;;;;;20.53;87.29395;942.2164;;;;
2023/08/22 02:32:03;;;;;;;9.1;7.1;;;;;;;20.5;87.56934;942.2542;;;;
2023/08/22 02:34:30;;;;;;;8;6.9;;;;;;;20.35;88.39453;942.2397;;;;
2023/08/22 02:36:55;;;;;;;9.8;7;;;;;;;20.42;88.11523;942.2127;;;;
2023/08/22 02:39:21;;;;;;;9;6.8;;;;;;;20.41;88.24023;942.23;;;;
2023/08/22 02:41:45;;;;;;;8.8;7.3;;;;;;;20.31;88.61914;942.2181;;;;
2023/08/22 02:44:12;;;;;;;8.6;7.1;;;;;;;20.21;89.34668;942.1819;;;;
2023/08/22 02:46:36;;;;;;;10.7;6.9;;;;;;;20.2;89.68066;942.1345;;;;
2023/08/22 02:49:02;;;;;;;8.2;6.6;;;;;;;20.35;88.69629;942.1711;;;;
2023/08/22 02:51:27;;;;;;;8.6;7.1;;;;;;;20.35;88.68457;942.1775;;;;
2023/08/22 02:53:53;;;;;;;9;7.2;;;;;;;20.43;87.97656;942.1838;;;;
2023/08/22 02:56:19;;;;;;;9.3;7.2;;;;;;;20.47;87.71582;942.199;;;;
2023/08/22 02:58:46;;;;;;;9;7;;;;;;;20.5;87.43066;942.2152;;;;
2023/08/22 03:01:12;;;;;;;7.9;7;;;;;;;20.48;87.50684;942.2166;;;;
2023/08/22 03:03:37;;;;;;;9.8;7.3;;;;;;;20.43;87.69824;942.1813;;;;
2023/08/22 03:06:02;;;;;;;8.5;6.9;;;;;;;20.08;89.59863;942.1856;;;;
2023/08/22 03:11:07;;;;;;;9.6;7.4;;;;;;;19.96;90.8584;942.1666;;;;
2023/08/22 03:13:37;;;;;;;8.6;7.5;;;;;;;20.03;90.17285;942.1228;;;;
2023/08/22 03:16:02;;;;;;;9.3;7.2;;;;;;;20.09;89.9043;942.128;;;;
2023/08/22 03:18:29;;;;;;;9.9;8.1;;;;;;;20.11;89.79102;942.1624;;;;
2023/08/22 03:20:54;;;;;;;10.1;8.9;;;;;;;20.14;89.68164;942.1995;;;;
2023/08/22 03:23:19;;;;;;;9.4;7.7;;;;;;;20.19;89.37598;942.1646;;;;
2023/08/22 03:25:45;;;;;;;8;7.1;;;;;;;20.25;88.875;942.1208;;;;
2023/08/22 03:28:11;;;;;;;10.4;7.3;;;;;;;20.25;88.74512;942.188;;;;
2023/08/22 03:30:36;;;;;;;8.6;7.3;;;;;;;20.24;88.63965;942.1525;;;;
2023/08/22 03:33:03;;;;;;;9.9;7.2;;;;;;;20.17;89.10352;942.1755;;;;
2023/08/22 03:35:28;;;;;;;8.6;7.1;;;;;;;19.87;90.91211;942.1595;;;;
2023/08/22 03:37:55;;;;;;;8.7;6.7;;;;;;;19.96;90.43848;942.0995;;;;
2023/08/22 03:40:21;;;;;;;8.3;7.4;;;;;;;20.07;89.80762;942.1041;;;;
2023/08/22 03:42:47;;;;;;;9.9;7.4;;;;;;;19.99;90.2793;942.0991;;;;
2023/08/22 03:45:14;;;;;;;11.3;7.8;;;;;;;20.01;90.05078;942.1017;;;;
2023/08/22 03:47:40;;;;;;;9.6;7.2;;;;;;;20.1;89.6748;942.1155;;;;
2023/08/22 03:50:05;;;;;;;9.6;7.1;;;;;;;20.14;89.49512;942.1697;;;;
2023/08/22 03:52:31;;;;;;;10.4;7.3;;;;;;;20.22;88.89063;942.1252;;;;
2023/08/22 03:54:56;;;;;;;10.2;7.5;;;;;;;20.22;88.54297;942.1505;;;;
2023/08/22 03:57:23;;;;;;;8.3;7.3;;;;;;;20.24;88.47656;942.192;;;;
2023/08/22 03:59:48;;;;;;;8.5;7;;;;;;;20.15;88.91309;942.2147;;;;
2023/08/22 04:02:32;;;;;;;9.3;7.2;;;;;;;19.99;89.86035;942.1855;;;;
2023/08/22 04:04:59;;;;;;;8.2;7.4;;;;;;;19.9;90.60254;942.2034;;;;
2023/08/22 04:07:24;;;;;;;8.5;7.3;;;;;;;19.95;90.21484;942.1701;;;;
2023/08/22 04:09:49;;;;;;;10.3;7.5;;;;;;;20.06;89.53711;942.2296;;;;
2023/08/22 04:12:16;;;;;;;9.1;7.5;;;;;;;20.05;89.3252;942.1926;;;;
2023/08/22 04:14:41;;;;;;;10.7;7.5;;;;;;;19.93;89.87305;942.2319;;;;
2023/08/22 04:17:06;;;;;;;13.3;9.1;;;;;;;19.97;89.86719;942.2045;;;;
2023/08/22 04:19:33;;;;;;;9.8;8.4;;;;;;;19.96;89.75;942.2305;;;;
2023/08/22 04:21:58;;;;;;;9.9;8.2;;;;;;;19.97;89.68164;942.2312;;;;
2023/08/22 04:24:24;;;;;;;9.6;7.3;;;;;;;20.02;89.50488;942.2463;;;;
2023/08/22 04:26:51;;;;;;;8.9;7.1;;;;;;;19.92;89.90625;942.2605;;;;
2023/08/22 04:29:14;;;;;;;9.9;7.5;;;;;;;19.86;90.47461;942.2706;;;;
2023/08/22 04:31:41;;;;;;;10.2;7.2;;;;;;;19.74;91.16406;942.2693;;;;
2023/08/22 04:34:07;;;;;;;8.1;7.1;;;;;;;19.8;90.94141;942.24;;;;
2023/08/22 04:36:34;;;;;;;12.4;7.6;;;;;;;19.78;91.01953;942.2484;;;;
2023/08/22 04:38:59;;;;;;;8.9;7.3;;;;;;;19.78;91.13574;942.2282;;;;
2023/08/22 04:41:25;;;;;;;11.2;7.2;;;;;;;19.73;91.39355;942.2227;;;;
2023/08/22 04:43:50;;;;;;;10.4;7.5;;;;;;;19.75;91.27051;942.2748;;;;
2023/08/22 04:46:16;;;;;;;9.1;7.4;;;;;;;19.92;90.20898;942.2572;;;;
2023/08/22 04:48:41;;;;;;;9.7;7.8;;;;;;;19.98;89.77734;942.2706;;;;
2023/08/22 04:51:08;;;;;;;11.7;8;;;;;;;20;89.61914;942.2758;;;;
2023/08/22 04:53:33;;;;;;;10;7.2;;;;;;;20.04;89.3916;942.1533;;;;
2023/08/22 04:56:00;;;;;;;8.3;7.2;;;;;;;20.04;89.54492;942.2283;;;;
2023/08/22 04:58:25;;;;;;;9.1;7.3;;;;;;;20.13;88.97754;942.2411;;;;
2023/08/22 05:00:52;;;;;;;11;7.7;;;;;;;20.1;89.18262;942.2021;;;;
2023/08/22 05:03:19;;;;;;;8.8;7.3;;;;;;;19.99;89.60254;942.2025;;;;
2023/08/22 05:05:44;;;;;;;8.1;7.3;;;;;;;20.08;89.31934;942.2058;;;;
2023/08/22 05:08:09;;;;;;;8.8;7.5;;;;;;;20.1;89.11426;942.2756;;;;
2023/08/22 05:10:38;;;;;;;11.9;8.2;;;;;;;20.12;89.25781;942.3108;;;;
2023/08/22 05:13:03;;;;;;;10.4;8.2;;;;;;;20.19;88.87402;942.2949;;;;
2023/08/22 05:15:30;;;;;;;9.9;7.7;;;;;;;20.26;88.45801;942.2458;;;;
2023/08/22 05:17:55;;;;;;;9.9;7.2;;;;;;;20.32;88.01367;942.2736;;;;
2023/08/22 05:20:22;;;;;;;9.4;7.7;;;;;;;20.41;87.6582;942.3077;;;;
2023/08/22 05:22:47;;;;;;;10.9;7.2;;;;;;;20.44;87.69824;942.2863;;;;
2023/08/22 05:25:14;;;;;;;8.1;7.3;;;;;;;20.44;87.41797;942.1892;;;;
2023/08/22 05:27:39;;;;;;;9;7.4;;;;;;;20.52;87.1543;942.2366;;;;
2023/08/22 05:30:04;;;;;;;10.8;7;;;;;;;20.59;87.0498;942.2084;;;;
2023/08/22 05:32:29;;;;;;;10.8;7.2;;;;;;;20.63;86.79102;942.2247;;;;
2023/08/22 05:34:57;;;;;;;9.3;7.5;;;;;;;20.54;87.97559;942.2405;;;;
2023/08/22 05:37:22;;;;;;;9.5;7.1;;;;;;;21.21;87.39648;942.2081;;;;
2023/08/22 05:39:47;;;;;;;10.7;6.9;;;;;;;22.22;79.59863;942.1518;;;;
2023/08/22 05:42:12;;;;;;;6.7;5.9;;;;;;;23.23;75.87598;942.21;;;;
2023/08/22 05:44:41;;;;;;;10.1;6;;;;;;;24.35;70.43457;942.1578;;;;
2023/08/22 05:47:06;;;;;;;7.3;5.8;;;;;;;25.32;66.8457;942.188;;;;
2023/08/22 05:49:34;;;;;;;7.9;5.8;;;;;;;26.21;63.01465;942.1525;;;;
2023/08/22 05:51:59;;;;;;;9.6;5.7;;;;;;;26.6;61.54199;942.1649;;;;
2023/08/22 05:54:27;;;;;;;8.5;6;;;;;;;26.95;60.57031;942.1057;;;;
2023/08/22 05:56:52;;;;;;;7.6;5.4;;;;;;;27.02;60.53125;942.0979;;;;
2023/08/22 05:59:22;;;;;;;8;5;;;;;;;27.61;57.56055;942.1049;;;;
2023/08/22 06:01:52;;;;;;;7.2;5.4;;;;;;;27.98;55.4707;942.1047;;;;
2023/08/22 06:04:17;;;;;;;8.1;5.8;;;;;;;28.82;53.70605;942.1289;;;;
2023/08/22 06:06:42;;;;;;;7;5.5;;;;;;;29.2;53.09668;942.133;;;;
2023/08/22 06:09:07;;;;;;;7;5.4;;;;;;;29.33;51.87305;942.082;;;;
2023/08/22 06:11:36;;;;;;;5.7;5.1;;;;;;;29.64;50.78809;942.1027;;;;
2023/08/22 06:14:01;;;;;;;6.3;5.2;;;;;;;30.04;49.16309;942.1019;;;;
2023/08/22 06:16:26;;;;;;;5.8;5.1;;;;;;;30.95;48.06445;942.0726;;;;
2023/08/22 06:18:53;;;;;;;7.7;4.9;;;;;;;31.23;46.52734;942.046;;;;
2023/08/22 06:21:18;;;;;;;7.1;5;;;;;;;30.98;46.61035;942.0826;;;;
2023/08/22 06:23:43;;;;;;;7.1;5.4;;;;;;;31.26;46.23145;942.0783;;;;
2023/08/22 06:26:08;;;;;;;7;5;;;;;;;31.63;45.45605;942.1136;;;;
2023/08/22 06:33:36;;;;;;;6.8;4.8;;;;;;;32.35;43.86035;942.012;;;;
2023/08/22 06:36:04;;;;;;;7.7;5.1;;;;;;;33.07;41.98438;941.9739;;;;
2023/08/22 06:38:29;;;;;;;5.9;5.2;;;;;;;32.38;43.62402;942.0122;;;;
2023/08/22 06:40:58;;;;;;;5.5;4.5;;;;;;;32.29;42.64258;942.0238;;;;
2023/08/22 06:43:26;;;;;;;5.6;5;;;;;;;32.26;43.82715;941.991;;;;
2023/08/22 06:45:51;;;;;;;6.2;4.5;;;;;;;32.88;43.11914;942.0275;;;;
2023/08/22 06:48:18;;;;;;;5.8;4.2;;;;;;;33.02;43.22852;942.0209;;;;
2023/08/22 06:50:43;;;;;;;5.2;4.6;;;;;;;33.99;41.50293;942.0087;;;;
2023/08/22 06:53:11;;;;;;;8.2;4.8;;;;;;;34.35;39.57129;942.0272;;;;
2023/08/22 06:55:37;;;;;;;5;4.4;;;;;;;35.09;39.64844;942.0319;;;;
2023/08/22 06:58:04;;;;;;;5.4;4.2;;;;;;;34.72;39.82129;942.0239;;;;
2023/08/22 07:00:29;;;;;;;6.9;4.4;;;;;;;35.49;38.58398;941.9501;;;;
2023/08/22 07:03:01;;;;;;;6.2;4.6;;;;;;;33.68;41.43848;941.9473;;;;
2023/08/22 07:05:28;;;;;;;5.2;4.2;;;;;;;31.6;46.11035;941.9408;;;;
2023/08/22 07:07:53;;;;;;;6;4.9;;;;;;;32.55;44.52734;941.9087;;;;
2023/08/22 07:10:18;;;;;;;6.4;4.9;;;;;;;33.59;42.35645;941.9057;;;;
2023/08/22 07:12:46;;;;;;;6.1;4.5;;;;;;;33.66;41.96582;941.894;;;;
2023/08/22 07:32:03;;;;;;;5.1;4.5;;;;;;;34.4;40.97363;941.9094;;;;
2023/08/22 07:34:29;;;;;;;7.3;5.1;;;;;;;34.51;39.95898;941.9269;;;;
2023/08/22 07:36:54;;;;;;;5.4;4.9;;;;;;;34.26;40.16602;941.9109;;;;
2023/08/22 07:39:20;;;;;;;10;5;;;;;;;33.91;40.88086;941.962;;;;
2023/08/22 07:41:45;;;;;;;6.1;4.7;;;;;;;35.45;38.49609;941.9125;;;;
2023/08/22 07:44:12;;;;;;;6.1;4.6;;;;;;;36.32;36.58594;941.8975;;;;
2023/08/22 07:46:36;;;;;;;5.5;4.7;;;;;;;36.32;36.64551;941.9261;;;;
2023/08/22 07:49:02;;;;;;;5.9;4.7;;;;;;;36.7;35.61035;941.9257;;;;
2023/08/22 07:51:27;;;;;;;5.2;4.7;;;;;;;35.9;36.11621;941.8939;;;;
2023/08/22 07:53:58;;;;;;;5.4;4.5;;;;;;;36.42;36.76172;941.9283;;;;
2023/08/22 07:56:25;;;;;;;4.9;4.4;;;;;;;37.36;35.41992;941.9109;;;;
2023/08/22 07:58:50;;;;;;;6.1;4.6;;;;;;;38.8;34.04688;941.8999;;;;
2023/08/22 08:01:17;;;;;;;7.4;4.9;;;;;;;38.4;33.87109;941.9113;;;;
2023/08/22 08:03:42;;;;;;;6.8;4.8;;;;;;;38.68;33.90332;941.885;;;;
2023/08/22 08:06:07;;;;;;;6.6;4.8;;;;;;;39.23;32.56836;941.877;;;;
2023/08/22 08:08:32;;;;;;;5.2;4.7;;;;;;;39.49;32.69629;941.9081;;;;
2023/08/22 08:10:58;;;;;;;5.2;4.7;;;;;;;38.96;31.58789;941.9122;;;;
2023/08/22 08:13:23;;;;;;;5.8;4.8;;;;;;;39.86;31.74707;941.877;;;;
2023/08/22 08:15:52;;;;;;;5.5;4.9;;;;;;;38.37;32.70215;941.8858;;;;
2023/08/22 08:18:17;;;;;;;5.6;5.1;;;;;;;39.32;32.53809;941.8677;;;;
2023/08/22 08:20:45;;;;;;;6;4.7;;;;;;;36.63;35.06055;941.7933;;;;
2023/08/22 08:23:10;;;;;;;7.1;4.7;;;;;;;37.85;34.7168;941.8442;;;;
2023/08/22 08:25:36;;;;;;;5.7;5.2;;;;;;;36.98;35.26855;941.8131;;;;
2023/08/22 08:28:01;;;;;;;5.9;4.8;;;;;;;38.14;33.87598;941.8369;;;;
2023/08/22 08:30:29;;;;;;;6.8;5.4;;;;;;;38.77;33.04785;941.8218;;;;
2023/08/22 08:33:00;;;;;;;5.9;4.9;;;;;;;39.51;31.71094;941.8328;;;;
2023/08/22 08:35:24;;;;;;;5.3;4.8;;;;;;;39.44;32.23047;941.8113;;;;
2023/08/22 08:37:52;;;;;;;7.4;5.1;;;;;;;40.1;30.4834;941.7855;;;;
2023/08/22 08:40:15;;;;;;;6.9;5.2;;;;;;;39.76;33.27637;941.7662;;;;
2023/08/22 08:42:40;;;;;;;5.8;5.2;;;;;;;39.23;33.88379;941.7731;;;;
2023/08/22 08:45:05;;;;;;;7.5;5.5;;;;;;;39.61;31.64453;941.7285;;;;
2023/08/22 08:47:32;;;;;;;5.6;5.1;;;;;;;38.72;33.87012;941.7439;;;;
2023/08/22 08:49:57;;;;;;;5.2;4.8;;;;;;;38.19;34.98535;941.7698;;;;
2023/08/22 08:52:23;;;;;;;5.2;4.7;;;;;;;36.93;39.49316;941.7179;;;;
2023/08/22 08:54:48;;;;;;;5.8;5.2;;;;;;;36.56;38.9043;941.7148;;;;
2023/08/22 08:57:13;;;;;;;5.9;5.3;;;;;;;36.25;37.06348;941.7495;;;;
2023/08/22 08:59:39;;;;;;;5.9;5;;;;;;;36.09;37.26855;941.75;;;;
2023/08/22 09:02:18;;;;;;;6;5.1;;;;;;;36.33;36.59863;941.7715;;;;
2023/08/22 09:04:39;;;;;;;7.6;4.8;;;;;;;35.65;40.05957;941.7629;;;;
2023/08/22 09:07:07;;;;;;;6.5;5.8;;;;;;;34.9;41.5498;941.7488;;;;
2023/08/22 09:09:32;;;;;;;6.5;5.9;;;;;;;34.67;41.44434;941.7006;;;;
2023/08/22 09:11:57;;;;;;;7.9;5.4;;;;;;;34.43;43.55469;941.6942;;;;
2023/08/22 09:14:28;;;;;;;7;5.1;;;;;;;34.87;41.34277;941.7154;;;;
2023/08/22 09:16:53;;;;;;;6.6;5.5;;;;;;;35.06;40.06836;941.7147;;;;
2023/08/22 09:19:23;;;;;;;8.7;5.6;;;;;;;34.82;40.45703;941.6941;;;;
2023/08/22 09:21:48;;;;;;;7.7;5.8;;;;;;;34.1;44.0166;941.7452;;;;
2023/08/22 09:24:16;;;;;;;5.8;5.2;;;;;;;33.3;43.43555;941.6813;;;;
2023/08/22 09:26:43;;;;;;;7;5.3;;;;;;;33.31;45.01074;941.6733;;;;
2023/08/22 09:29:08;;;;;;;7;5.3;;;;;;;33.59;42.8252;941.6721;;;;
2023/08/22 09:31:33;;;;;;;5.8;5.2;;;;;;;33.7;47.23828;941.7151;;;;
2023/08/22 09:34:00;;;;;;;7.6;4.8;;;;;;;33.39;44.72949;941.6861;;;;
2023/08/22 09:36:25;;;;;;;5.7;4.8;;;;;;;33.31;48.05078;941.6376;;;;
2023/08/22 09:38:51;;;;;;;6.1;4.6;;;;;;;32.65;45.5332;941.59;;;;
2023/08/22 09:41:15;;;;;;;4.9;4.3;;;;;;;32.95;48.69727;941.6375;;;;
2023/08/22 09:43:42;;;;;;;6;4.3;;;;;;;33.24;48.8125;941.6347;;;;
2023/08/22 09:46:05;;;;;;;6.3;4.2;;;;;;;32.94;47.32715;941.629;;;;
2023/08/22 09:48:33;;;;;;;5.7;4.4;;;;;;;33.16;45.58496;941.6096;;;;
2023/08/22 09:50:59;;;;;;;4.8;4.1;;;;;;;33.44;44.03711;941.5848;;;;
2023/08/22 09:53:26;;;;;;;6.5;4.5;;;;;;;33.41;46.47461;941.6218;;;;
2023/08/22 09:55:50;;;;;;;5.1;4.1;;;;;;;33.93;44.7832;941.5717;;;;
2023/08/22 09:58:17;;;;;;;5.6;4.3;;;;;;;33.91;46.25;941.5435;;;;
2023/08/22 10:00:41;;;;;;;5.7;4.2;;;;;;;33.71;49.20117;941.498;;;;
2023/08/22 10:03:09;;;;;;;6.6;4.7;;;;;;;33.13;48.38184;941.4722;;;;
2023/08/22 10:05:34;;;;;;;5.1;4;;;;;;;33.26;47.21582;941.4783;;;;
2023/08/22 10:08:13;;;;;;;6.8;4.3;;;;;;;33.6;44.08887;941.4913;;;;
2023/08/22 10:10:38;;;;;;;5.4;4.2;;;;;;;33.86;43.81445;941.4291;;;;
2023/08/22 10:13:03;;;;;;;6;4.3;;;;;;;34.24;44.23633;941.3884;;;;
2023/08/22 10:15:29;;;;;;;5.7;4.4;;;;;;;33.96;45.00293;941.4387;;;;
2023/08/22 10:17:55;;;;;;;7.8;4.2;;;;;;;33.41;48.13379;941.4348;;;;
2023/08/22 10:20:23;;;;;;;6.5;4.6;;;;;;;33.28;48.58887;941.3664;;;;
2023/08/22 10:22:50;;;;;;;7.7;4.2;;;;;;;33.74;46.83398;941.2947;;;;
2023/08/22 10:25:16;;;;;;;5.3;4.5;;;;;;;33.65;47.33008;941.2911;;;;
2023/08/22 10:27:42;;;;;;;4.7;4.1;;;;;;;34.32;43.28027;941.3192;;;;
2023/08/22 10:31:02;;;;;;;5.4;4.2;;;;;;;34.48;46.37988;941.3149;;;;
2023/08/22 10:33:22;;;;;;;7.9;4.5;;;;;;;33.89;47.03027;941.259;;;;
2023/08/22 10:35:48;;;;;;;6.2;4.4;;;;;;;34.69;41.17969;941.2086;;;;
2023/08/22 10:38:14;;;;;;;5.5;4.1;;;;;;;34.76;39.84863;941.1964;;;;
2023/08/22 10:40:39;;;;;;;6;3.8;;;;;;;35.26;41.46094;941.1897;;;;
2023/08/22 10:43:05;;;;;;;5.1;4.4;;;;;;;36.16;40.7334;941.2328;;;;
2023/08/22 10:45:30;;;;;;;7.8;4.2;;;;;;;36.04;38.30371;941.1647;;;;
2023/08/22 10:47:56;;;;;;;7.8;3.9;;;;;;;36.89;36.87305;941.2256;;;;
2023/08/22 10:50:21;;;;;;;6.2;4;;;;;;;36.76;36.81445;941.1859;;;;
2023/08/22 10:52:46;;;;;;;6.6;4.4;;;;;;;37.5;35.90332;941.1304;;;;
2023/08/22 10:55:15;;;;;;;4.5;4.1;;;;;;;37.09;37.41113;941.1361;;;;
2023/08/22 10:57:40;;;;;;;4.2;3.8;;;;;;;37.45;37.06445;941.1306;;;;
2023/08/22 11:00:38;;;;;;;5.3;4.4;;;;;;;37.88;37.0625;941.1584;;;;
2023/08/22 11:03:03;;;;;;;5;4.3;;;;;;;38.44;34.28711;941.105;;;;
2023/08/22 11:05:32;;;;;;;4.5;4;;;;;;;39.13;34.77734;941.1298;;;;
2023/08/22 11:07:57;;;;;;;5;4;;;;;;;39.33;33.8418;941.0715;;;;
2023/08/22 11:10:22;;;;;;;5;4.3;;;;;;;39.98;32.56055;941.0284;;;;
2023/08/22 11:12:50;;;;;;;5.1;4.4;;;;;;;37.7;39.11035;941.0784;;;;
2023/08/22 11:15:15;;;;;;;7.1;4.5;;;;;;;37.58;36.77148;941.0231;;;;
2023/08/22 11:17:43;;;;;;;6.8;3.9;;;;;;;38.96;34.03418;940.972;;;;
2023/08/22 11:20:07;;;;;;;6.8;4;;;;;;;39.47;33.7793;941.0016;;;;
2023/08/22 11:22:37;;;;;;;6.3;4.8;;;;;;;39.79;33.24219;940.9769;;;;
2023/08/22 11:25:05;;;;;;;5.9;4.2;;;;;;;39.89;33.96777;941.008;;;;
2023/08/22 11:27:30;;;;;;;5;4.1;;;;;;;39.46;33.63184;941.007;;;;
2023/08/22 11:29:57;;;;;;;4.3;3.9;;;;;;;38.4;35.60938;940.9077;;;;
2023/08/22 11:32:22;;;;;;;5;4.1;;;;;;;38.16;38.22656;940.9598;;;;
2023/08/22 11:34:52;;;;;;;5.1;4.1;;;;;;;39.21;34.15039;940.9658;;;;
2023/08/22 11:37:17;;;;;;;5.8;4.5;;;;;;;37.72;37.74121;940.9034;;;;
2023/08/22 11:43:09;;;;;;;6.1;4;;;;;;;37.25;38.01758;940.9321;;;;
2023/08/22 11:45:39;;;;;;;6.4;4.6;;;;;;;35.95;39.77148;940.9056;;;;
2023/08/22 11:48:04;;;;;;;4.9;4.4;;;;;;;35.93;41.0752;940.9368;;;;
2023/08/22 11:50:29;;;;;;;5.9;4.2;;;;;;;36.09;40.00195;940.9131;;;;
2023/08/22 11:52:57;;;;;;;6.3;4.3;;;;;;;35.81;40.93164;940.9075;;;;
2023/08/22 11:55:22;;;;;;;4.5;4.1;;;;;;;34.16;45.47949;940.9484;;;;
2023/08/22 11:57:52;;;;;;;5.8;4.2;;;;;;;33.48;46.50586;940.8761;;;;
2023/08/22 12:00:23;;;;;;;6;4.1;;;;;;;33.19;46.64453;940.9001;;;;
2023/08/22 12:02:49;;;;;;;6.2;4.3;;;;;;;33.2;47.90723;940.8733;;;;
2023/08/22 12:05:14;;;;;;;5.5;4.5;;;;;;;33.66;45.20117;940.9044;;;;
2023/08/22 12:07:43;;;;;;;4.8;4.1;;;;;;;33.91;44.66113;940.8328;;;;
2023/08/22 12:10:18;;;;;;;6.3;4.6;;;;;;;33.67;44.98535;940.8247;;;;
2023/08/22 12:12:47;;;;;;;5.5;4.4;;;;;;;33.76;46.11328;940.8109;;;;
2023/08/22 12:15:12;;;;;;;7;4.4;;;;;;;33.75;46.24512;940.8614;;;;
2023/08/22 12:17:37;;;;;;;5.2;4.7;;;;;;;33.67;45.81543;940.8474;;;;
2023/08/22 12:20:06;;;;;;;6.5;4.7;;;;;;;32.9;50.14551;940.8194;;;;
2023/08/22 12:22:31;;;;;;;8.3;4.7;;;;;;;33.46;46.49219;940.793;;;;
2023/08/22 12:24:58;;;;;;;5.4;4.4;;;;;;;33.7;47.22559;940.7039;;;;
2023/08/22 12:27:27;;;;;;;7;4.5;;;;;;;33.74;44.15137;940.6501;;;;
2023/08/22 12:30:21;;;;;;;6.7;4.8;;;;;;;33.33;46.41797;940.6916;;;;
2023/08/22 12:32:46;;;;;;;4.7;4.2;;;;;;;33.1;47.8252;940.6962;;;;
2023/08/22 12:35:12;;;;;;;5.6;4.4;;;;;;;33.54;45.04492;940.6006;;;;
2023/08/22 12:37:37;;;;;;;4.6;4.2;;;;;;;33.77;44.0332;940.6449;;;;
2023/08/22 12:40:10;;;;;;;5.7;4.3;;;;;;;33.89;43.57617;940.6202;;;;
2023/08/22 12:42:31;;;;;;;4.6;4.2;;;;;;;33.91;44.76953;940.5938;;;;
2023/08/22 12:44:56;;;;;;;5.8;4.5;;;;;;;33.45;45.58984;940.7062;;;;
2023/08/22 12:47:23;;;;;;;6.4;4.7;;;;;;;33.62;44.1875;940.6451;;;;
2023/08/22 12:49:48;;;;;;;4.6;4.2;;;;;;;34.04;44.01172;940.6078;;;;
2023/08/22 12:52:14;;;;;;;7.6;4.7;;;;;;;33.88;46.28223;940.6008;;;;
2023/08/22 12:54:40;;;;;;;5.7;4.3;;;;;;;33.62;46.37598;940.63;;;;
2023/08/22 12:57:08;;;;;;;6.3;4.6;;;;;;;33.75;44.03027;940.5698;;;;
2023/08/22 12:59:32;;;;;;;5.6;4.8;;;;;;;33.94;44.4834;940.5828;;;;
2023/08/22 13:01:59;;;;;;;5.3;4.5;;;;;;;33.95;45.25391;940.5865;;;;
2023/08/22 13:04:25;;;;;;;5.6;4.5;;;;;;;34.19;42.6416;940.5658;;;;
2023/08/22 13:06:54;;;;;;;5.1;4.6;;;;;;;34.05;43.03711;940.5181;;;;
2023/08/22 13:09:23;;;;;;;6.7;4.5;;;;;;;33.57;45.4209;940.5569;;;;
2023/08/22 13:11:48;;;;;;;5.2;4.7;;;;;;;33.19;45.74512;940.5061;;;;
2023/08/22 13:14:17;;;;;;;8.9;5.1;;;;;;;33.37;46.38672;940.5559;;;;
2023/08/22 13:16:42;;;;;;;6;4.4;;;;;;;33.35;46.27734;940.5338;;;;
2023/08/22 13:19:10;;;;;;;5.7;4.5;;;;;;;33.48;44.94336;940.5035;;;;
2023/08/22 13:24:02;;;;;;;5.6;4.8;;;;;;;34.11;44.7168;940.4528;;;;
2023/08/22 13:26:28;;;;;;;6.6;4.5;;;;;;;34.29;43.69824;940.4047;;;;
2023/08/22 13:30:38;;;;;;;6.3;4.8;;;;;;;34.23;43.24707;940.4451;;;;
2023/08/22 13:32:48;;;;;;;5;4.5;;;;;;;34.26;43.99609;940.4545;;;;
2023/08/22 13:36:33;;;;;;;5.1;4.5;;;;;;;34.36;43.95703;940.4405;;;;
2023/08/22 13:38:43;;;;;;;5.7;4.4;;;;;;;34.4;43.63672;940.4109;;;;
2023/08/22 13:41:12;;;;;;;6.6;4.8;;;;;;;34.31;43.88086;940.3777;;;;
2023/08/22 13:43:38;;;;;;;4.3;4;;;;;;;34.31;42.53223;940.4219;;;;
2023/08/22 13:46:05;;;;;;;4.8;4.3;;;;;;;34.22;41.54785;940.3907;;;;
2023/08/22 13:48:29;;;;;;;5.6;4.7;;;;;;;33.96;46.4834;940.4354;;;;
2023/08/22 13:50:55;;;;;;;5.5;4.7;;;;;;;33.73;43.65723;940.425;;;;
2023/08/22 13:53:20;;;;;;;5.9;4.7;;;;;;;33.43;45.47949;940.408;;;;
2023/08/22 13:55:48;;;;;;;6.1;4.7;;;;;;;33.48;45.03906;940.421;;;;
2023/08/22 13:58:13;;;;;;;7.7;5.2;;;;;;;33.59;44.17188;940.4756;;;;
2023/08/22 14:00:39;;;;;;;6.2;5;;;;;;;33.69;44.73535;940.4034;;;;
2023/08/22 14:03:04;;;;;;;5.1;4.6;;;;;;;33.73;44.34277;940.3761;;;;
2023/08/22 14:05:31;;;;;;;5.3;4.8;;;;;;;33.61;47.55371;940.3698;;;;
2023/08/22 14:07:56;;;;;;;6.7;4.9;;;;;;;33.4;46.85938;940.4562;;;;
2023/08/22 14:10:23;;;;;;;5.9;4.9;;;;;;;33.25;46.41113;940.4275;;;;
2023/08/22 14:12:47;;;;;;;8;5;;;;;;;33.38;45.51074;940.407;;;;
2023/08/22 14:15:15;;;;;;;5.5;4.7;;;;;;;33.44;45.4082;940.428;;;;
2023/08/22 14:17:40;;;;;;;6.1;5.1;;;;;;;33.21;45.72168;940.4217;;;;
2023/08/22 14:20:10;;;;;;;6.6;4.6;;;;;;;32.96;46.58594;940.4174;;;;
2023/08/22 14:22:39;;;;;;;6.4;5.2;;;;;;;32.75;46.82813;940.4575;;;;
2023/08/22 14:26:08;;;;;;;12.3;5.8;;;;;;;32.5;46.60938;940.4676;;;;
2023/08/22 14:28:36;;;;;;;6.7;5.5;;;;;;;32.5;46.39355;940.4055;;;;
2023/08/22 14:31:01;;;;;;;6;5.1;;;;;;;32.49;46.79004;940.4487;;;;
2023/08/22 14:33:29;;;;;;;5.8;5;;;;;;;32.31;47.39453;940.4139;;;;
2023/08/22 14:35:54;;;;;;;6.4;5.1;;;;;;;32.23;48.52539;940.4594;;;;
2023/08/22 14:38:49;;;;;;;7.7;4.7;;;;;;;32.19;48.95313;940.514;;;;
2023/08/22 14:41:17;;;;;;;6.9;5.8;;;;;;;32.35;48.05762;940.4169;;;;
2023/08/22 14:43:43;;;;;;;8.6;5.1;;;;;;;32.5;47.97754;940.4154;;;;
2023/08/22 14:46:08;;;;;;;7;5;;;;;;;32.34;47.87695;940.4606;;;;
2023/08/22 14:48:33;;;;;;;7.4;5.5;;;;;;;32.27;47.7373;940.3945;;;;
2023/08/22 14:50:58;;;;;;;7.9;5.3;;;;;;;32.32;48.77441;940.4429;;;;
2023/08/22 14:53:26;;;;;;;7.9;4.9;;;;;;;32.14;48.49023;940.4142;;;;
2023/08/22 14:55:51;;;;;;;8.1;5.1;;;;;;;32.27;48.63672;940.3701;;;;
2023/08/22 14:58:18;;;;;;;13.8;11.7;;;;;;;32.37;48.97168;940.4023;;;;
2023/08/22 15:00:44;;;;;;;6.7;5.6;;;;;;;32.45;50.29883;940.4267;;;;